Time;durP1;ratioP1;P1;durP2;ratioP2;P2;SDS_P1;SDS_P2;PMS_P1;PMS_P2;Temp;Humidity;BMP_temperature;BMP_pressure;BME280_temperature;BME280_humidity;BME280_pressure;Samples;Min_cycle;Max_cycle;Signal;HPM_P1;HPM_P2
2023/03/19 00:01:44;;;;;;;9.10;3.73;;;;;;;;;;5054535;28;20182;-71
2023/03/19 00:04:10;;;;;;;7.70;4.30;;;;;;;;;;5055634;28;20186;-70
2023/03/19 00:06:36;;;;;;;5.93;3.90;;;;;;;;;;5055890;28;20258;-71
2023/03/19 00:09:02;;;;;;;5.50;3.80;;;;;;;;;;5055797;28;20652;-71
2023/03/19 00:11:28;;;;;;;7.90;3.87;;;;;;;;;;5055327;28;20177;-72
2023/03/19 00:13:54;;;;;;;5.17;4.07;;;;;;;;;;5053732;28;20230;-71
2023/03/19 00:16:20;;;;;;;6.50;4.10;;;;;;;;;;5054076;28;20188;-71
2023/03/19 00:18:46;;;;;;;8.73;4.30;;;;;;;;;;5053673;28;20175;-71
2023/03/19 00:21:13;;;;;;;5.67;4.13;;;;;;;;;;5054973;28;20549;-71
2023/03/19 00:23:38;;;;;;;8.20;4.63;;;;;;;;;;5053409;28;20225;-71
2023/03/19 00:26:05;;;;;;;7.07;4.50;;;;;;;;;;5054698;28;20632;-71
2023/03/19 00:28:31;;;;;;;4.70;3.90;;;;;;;;;;5054817;28;20207;-71
2023/03/19 00:30:57;;;;;;;8.37;5.80;;;;;;;;;;5053725;28;20189;-71
2023/03/19 00:33:24;;;;;;;6.27;5.67;;;;;;;;;;5053186;28;20293;-72
2023/03/19 00:35:51;;;;;;;7.17;6.10;;;;;;;;;;5053441;28;20182;-71
2023/03/19 00:38:17;;;;;;;30.37;21.87;;;;;;;;;;5054722;28;20217;-71
2023/03/19 00:40:43;;;;;;;23.33;14.60;;;;;;;;;;5054279;28;20226;-71
2023/03/19 00:43:09;;;;;;;19.80;14.60;;;;;;;;;;5053134;28;20277;-71
2023/03/19 00:45:35;;;;;;;17.77;13.03;;;;;;;;;;5053151;28;20179;-69
2023/03/19 00:48:01;;;;;;;29.73;24.17;;;;;;;;;;5053172;28;20171;-72
2023/03/19 00:50:27;;;;;;;59.40;53.00;;;;;;;;;;5053136;28;20559;-71
2023/03/19 00:52:53;;;;;;;29.60;25.20;;;;;;;;;;5054342;28;20627;-71
2023/03/19 00:55:19;;;;;;;20.23;16.23;;;;;;;;;;5053080;28;20178;-71
2023/03/19 00:57:45;;;;;;;18.00;13.57;;;;;;;;;;5055663;28;20179;-71
2023/03/19 01:00:11;;;;;;;16.13;12.33;;;;;;;;;;5054788;28;20198;-71
2023/03/19 01:02:37;;;;;;;12.83;10.90;;;;;;;;;;5055329;28;20190;-71
2023/03/19 01:05:03;;;;;;;13.23;10.20;;;;;;;;;;5053381;28;20553;-71
2023/03/19 01:07:29;;;;;;;14.97;10.83;;;;;;;;;;5054010;28;20183;-71
2023/03/19 01:09:55;;;;;;;17.30;11.27;;;;;;;;;;5054263;28;20189;-71
2023/03/19 01:12:21;;;;;;;18.10;12.87;;;;;;;;;;5055331;28;20218;-71
2023/03/19 01:14:47;;;;;;;13.77;11.70;;;;;;;;;;5054701;28;20277;-72
2023/03/19 01:17:13;;;;;;;14.73;10.30;;;;;;;;;;5054433;28;20186;-72
2023/03/19 01:19:39;;;;;;;14.57;10.93;;;;;;;;;;5053733;28;20264;-71
2023/03/19 01:22:05;;;;;;;10.80;8.70;;;;;;;;;;5054977;28;20726;-71
2023/03/19 01:24:31;;;;;;;11.13;8.07;;;;;;;;;;5053584;28;20648;-71
2023/03/19 01:26:57;;;;;;;10.00;7.97;;;;;;;;;;5054573;28;20193;-71
2023/03/19 01:29:23;;;;;;;11.80;7.70;;;;;;;;;;5052717;28;20684;-72
2023/03/19 01:31:50;;;;;;;10.70;7.90;;;;;;;;;;5053563;28;20232;-71
2023/03/19 01:34:16;;;;;;;11.33;7.53;;;;;;;;;;5053714;28;20174;-71
2023/03/19 01:36:42;;;;;;;12.40;8.03;;;;;;;;;;5053733;28;20174;-71
2023/03/19 01:39:09;;;;;;;12.47;8.53;;;;;;;;;;5052136;28;20198;-71
2023/03/19 01:41:35;;;;;;;12.10;9.03;;;;;;;;;;5052233;28;20201;-71
2023/03/19 01:44:01;;;;;;;10.33;7.83;;;;;;;;;;5053443;28;20182;-71
2023/03/19 01:46:32;;;;;;;11.83;8.03;;;;;;;;;;5053830;28;20178;-71
2023/03/19 01:48:59;;;;;;;11.57;8.10;;;;;;;;;;5053704;28;20220;-71
2023/03/19 01:51:30;;;;;;;11.23;8.30;;;;;;;;;;5052009;28;20663;-71
2023/03/19 01:53:58;;;;;;;12.70;8.23;;;;;;;;;;5054542;28;20170;-71
2023/03/19 01:56:34;;;;;;;10.40;7.37;;;;;;;;;;5053672;28;20178;-69
2023/03/19 01:59:02;;;;;;;7.63;6.50;;;;;;;;;;5053291;28;20652;-70
2023/03/19 02:01:29;;;;;;;8.97;6.93;;;;;;;;;;5053024;28;20174;-70
2023/03/19 02:03:56;;;;;;;10.53;7.63;;;;;;;;;;5053854;28;20672;-70
2023/03/19 02:06:23;;;;;;;8.80;6.97;;;;;;;;;;5052132;28;20671;-70
2023/03/19 02:08:50;;;;;;;9.47;7.27;;;;;;;;;;5053738;28;20175;-70
2023/03/19 02:11:17;;;;;;;9.70;7.03;;;;;;;;;;5056107;28;20187;-71
2023/03/19 02:13:43;;;;;;;10.43;7.83;;;;;;;;;;5053181;28;20217;-71
2023/03/19 02:16:09;;;;;;;11.60;7.10;;;;;;;;;;5055823;28;20232;-70
2023/03/19 02:18:35;;;;;;;8.90;6.57;;;;;;;;;;5055909;28;20257;-71
2023/03/19 02:21:01;;;;;;;12.97;7.50;;;;;;;;;;5055497;28;20214;-71
2023/03/19 02:23:34;;;;;;;15.07;7.43;;;;;;;;;;5057438;28;20195;-70
2023/03/19 02:26:00;;;;;;;9.13;6.57;;;;;;;;;;5056270;28;20555;-71
2023/03/19 02:28:27;;;;;;;10.00;7.00;;;;;;;;;;5057178;28;20185;-70
2023/03/19 02:30:53;;;;;;;11.93;7.43;;;;;;;;;;5057800;28;20178;-70
2023/03/19 02:33:19;;;;;;;10.93;6.97;;;;;;;;;;5056680;28;20205;-70
2023/03/19 02:35:46;;;;;;;13.20;7.13;;;;;;;;;;5056791;28;20179;-70
2023/03/19 02:38:13;;;;;;;9.00;7.10;;;;;;;;;;5056912;28;20186;-71
2023/03/19 02:41:06;;;;;;;8.77;6.63;;;;;;;;;;5055063;28;20206;-71
2023/03/19 02:43:33;;;;;;;11.73;7.40;;;;;;;;;;5052465;28;20767;-69
2023/03/19 02:45:59;;;;;;;12.83;6.97;;;;;;;;;;5055759;28;20175;-68
2023/03/19 02:48:25;;;;;;;11.83;7.30;;;;;;;;;;5057665;28;20207;-70
2023/03/19 02:50:51;;;;;;;10.20;6.33;;;;;;;;;;5055462;28;20659;-70
2023/03/19 02:53:18;;;;;;;14.03;7.20;;;;;;;;;;5056626;28;20198;-70
2023/03/19 02:55:44;;;;;;;10.53;6.53;;;;;;;;;;5054862;28;20710;-71
2023/03/19 02:58:11;;;;;;;10.07;6.97;;;;;;;;;;5055193;28;20186;-71
2023/03/19 03:00:37;;;;;;;9.60;7.23;;;;;;;;;;5054883;28;20206;-71
2023/03/19 03:03:05;;;;;;;13.93;7.43;;;;;;;;;;5056115;28;20195;-71
2023/03/19 03:05:31;;;;;;;10.47;6.47;;;;;;;;;;5056404;28;20254;-70
2023/03/19 03:07:57;;;;;;;8.83;6.30;;;;;;;;;;5054702;28;20175;-70
2023/03/19 03:10:24;;;;;;;8.47;6.70;;;;;;;;;;5055895;28;20189;-70
2023/03/19 03:12:50;;;;;;;8.07;6.47;;;;;;;;;;5054451;28;20206;-71
2023/03/19 03:15:17;;;;;;;10.93;6.37;;;;;;;;;;5056250;28;20178;-70
2023/03/19 03:17:44;;;;;;;10.73;6.43;;;;;;;;;;5059159;28;20214;-70
2023/03/19 03:20:11;;;;;;;7.90;6.40;;;;;;;;;;5054394;28;20198;-70
2023/03/19 03:22:38;;;;;;;11.70;7.20;;;;;;;;;;5055484;28;20547;-70
2023/03/19 03:25:04;;;;;;;12.77;6.40;;;;;;;;;;5055359;28;20174;-70
2023/03/19 03:27:30;;;;;;;9.07;6.43;;;;;;;;;;5055573;28;20202;-70
2023/03/19 03:29:56;;;;;;;11.40;7.23;;;;;;;;;;5054309;28;20178;-70
2023/03/19 03:32:22;;;;;;;11.00;6.67;;;;;;;;;;5054264;28;20213;-70
2023/03/19 03:34:48;;;;;;;9.43;6.73;;;;;;;;;;5055367;28;20668;-70
2023/03/19 03:37:14;;;;;;;9.93;6.60;;;;;;;;;;5054111;28;20201;-70
2023/03/19 03:39:41;;;;;;;9.50;7.03;;;;;;;;;;5053959;28;20206;-70
2023/03/19 03:42:07;;;;;;;8.27;6.77;;;;;;;;;;5054144;28;20663;-70
2023/03/19 03:44:33;;;;;;;10.67;7.17;;;;;;;;;;5056481;28;20182;-70
2023/03/19 03:46:59;;;;;;;16.53;7.40;;;;;;;;;;5054510;28;20179;-70
2023/03/19 03:49:25;;;;;;;9.97;6.70;;;;;;;;;;5055479;28;20186;-70
2023/03/19 03:51:51;;;;;;;10.77;7.40;;;;;;;;;;5053680;28;20257;-71
2023/03/19 03:54:17;;;;;;;11.30;7.57;;;;;;;;;;5055604;28;20178;-70
2023/03/19 03:56:43;;;;;;;12.30;6.70;;;;;;;;;;5054548;28;20640;-70
2023/03/19 03:59:09;;;;;;;10.97;7.20;;;;;;;;;;5053667;28;20209;-70
2023/03/19 04:01:35;;;;;;;12.93;6.77;;;;;;;;;;5053312;28;20182;-70
2023/03/19 04:04:01;;;;;;;8.20;5.83;;;;;;;;;;5053547;28;20186;-70
2023/03/19 04:06:28;;;;;;;11.33;6.30;;;;;;;;;;5054756;28;20179;-70
2023/03/19 04:08:54;;;;;;;10.77;6.03;;;;;;;;;;5054949;28;20170;-70
2023/03/19 04:11:20;;;;;;;10.37;6.23;;;;;;;;;;5053305;28;20214;-70
2023/03/19 04:13:46;;;;;;;9.90;6.10;;;;;;;;;;5054996;28;20234;-69
2023/03/19 04:16:14;;;;;;;11.13;5.20;;;;;;;;;;5055465;28;20220;-69
2023/03/19 04:18:40;;;;;;;9.53;5.17;;;;;;;;;;5054151;28;20178;-69
2023/03/19 04:21:07;;;;;;;9.03;5.60;;;;;;;;;;5054136;28;20544;-69
2023/03/19 04:23:33;;;;;;;10.97;5.63;;;;;;;;;;5066441;28;20218;-70
2023/03/19 04:26:00;;;;;;;9.87;5.47;;;;;;;;;;5054724;28;20634;-70
2023/03/19 04:28:27;;;;;;;8.80;5.20;;;;;;;;;;5053400;28;20561;-69
2023/03/19 04:30:57;;;;;;;11.40;5.33;;;;;;;;;;5053316;28;20189;-70
2023/03/19 04:33:24;;;;;;;10.57;5.13;;;;;;;;;;5054537;28;20207;-70
2023/03/19 04:35:50;;;;;;;8.03;4.67;;;;;;;;;;5054662;28;20197;-69
2023/03/19 04:38:17;;;;;;;6.00;5.03;;;;;;;;;;5053512;28;20183;-70
2023/03/19 04:40:43;;;;;;;9.43;5.20;;;;;;;;;;5052818;28;20209;-69
2023/03/19 04:43:08;;;;;;;10.43;5.00;;;;;;;;;;5052616;28;20194;-70
2023/03/19 04:45:35;;;;;;;9.23;5.10;;;;;;;;;;5055628;28;20237;-70
2023/03/19 04:48:02;;;;;;;11.57;5.00;;;;;;;;;;5053879;28;20712;-70
2023/03/19 04:50:29;;;;;;;5.93;4.80;;;;;;;;;;5054164;28;20174;-70
2023/03/19 04:52:55;;;;;;;10.07;5.00;;;;;;;;;;5053857;28;20624;-70
2023/03/19 04:55:21;;;;;;;8.30;4.80;;;;;;;;;;5052335;28;20214;-70
2023/03/19 04:57:47;;;;;;;8.53;5.40;;;;;;;;;;5053630;28;20260;-70
2023/03/19 05:00:13;;;;;;;6.97;4.80;;;;;;;;;;5052308;28;20198;-70
2023/03/19 05:02:40;;;;;;;6.93;5.10;;;;;;;;;;5052273;28;20195;-69
2023/03/19 05:05:06;;;;;;;7.47;4.73;;;;;;;;;;5053702;28;20178;-69
2023/03/19 05:07:32;;;;;;;8.57;5.20;;;;;;;;;;5052212;28;20178;-69
2023/03/19 05:09:59;;;;;;;6.90;4.53;;;;;;;;;;5053589;28;20205;-69
2023/03/19 05:12:25;;;;;;;7.80;4.67;;;;;;;;;;5053184;28;20663;-70
2023/03/19 05:14:51;;;;;;;11.50;4.83;;;;;;;;;;5052352;28;20190;-70
2023/03/19 05:17:17;;;;;;;9.80;5.03;;;;;;;;;;5053645;28;20174;-70
2023/03/19 05:19:43;;;;;;;7.83;5.47;;;;;;;;;;5053061;28;20641;-70
2023/03/19 05:22:09;;;;;;;8.63;4.93;;;;;;;;;;5053173;28;20203;-70
2023/03/19 05:24:35;;;;;;;9.63;5.40;;;;;;;;;;5053556;28;20214;-70
2023/03/19 05:27:01;;;;;;;6.63;4.77;;;;;;;;;;5053411;28;20171;-70
2023/03/19 05:29:27;;;;;;;6.53;4.50;;;;;;;;;;5053008;28;20178;-70
2023/03/19 05:31:53;;;;;;;7.23;4.83;;;;;;;;;;5053157;28;20255;-70
2023/03/19 05:34:19;;;;;;;7.37;4.37;;;;;;;;;;5051691;28;20659;-70
2023/03/19 05:36:45;;;;;;;6.20;4.33;;;;;;;;;;5052008;28;20186;-71
2023/03/19 05:39:11;;;;;;;5.93;4.43;;;;;;;;;;5052252;28;20283;-71
2023/03/19 05:41:37;;;;;;;10.70;4.70;;;;;;;;;;5053618;28;20272;-71
2023/03/19 05:44:03;;;;;;;6.93;4.23;;;;;;;;;;5053610;28;20174;-71
2023/03/19 05:46:30;;;;;;;6.37;4.73;;;;;;;;;;5051806;28;20201;-71
2023/03/19 05:48:56;;;;;;;7.67;5.10;;;;;;;;;;5055288;28;20180;-71
2023/03/19 05:51:22;;;;;;;10.03;5.27;;;;;;;;;;5057643;28;20221;-71
2023/03/19 05:53:47;;;;;;;6.80;5.37;;;;;;;;;;5057171;28;20190;-71
2023/03/19 05:56:13;;;;;;;5.63;5.00;;;;;;;;;;5057500;28;20368;-71
2023/03/19 05:58:39;;;;;;;6.37;5.77;;;;;;;;;;5055897;28;20182;-71
2023/03/19 06:01:05;;;;;;;9.30;5.87;;;;;;;;;;5055748;28;20209;-71
2023/03/19 06:03:31;;;;;;;8.57;6.63;;;;;;;;;;5056728;28;20201;-71
2023/03/19 06:05:57;;;;;;;10.13;6.70;;;;;;;;;;5055879;28;20175;-71
2023/03/19 06:08:23;;;;;;;7.53;6.77;;;;;;;;;;5055833;28;20186;-71
2023/03/19 06:10:52;;;;;;;9.47;7.37;;;;;;;;;;5059443;28;20185;-71
2023/03/19 06:13:17;;;;;;;13.83;6.90;;;;;;;;;;5057614;28;20243;-71
2023/03/19 06:15:43;;;;;;;9.00;7.33;;;;;;;;;;5056894;28;20308;-71
2023/03/19 06:18:10;;;;;;;9.30;7.40;;;;;;;;;;5060126;28;20183;-71
2023/03/19 06:20:35;;;;;;;8.70;7.80;;;;;;;;;;5059459;28;20202;-71
2023/03/19 06:23:01;;;;;;;11.37;8.30;;;;;;;;;;5056176;28;20202;-71
2023/03/19 06:25:27;;;;;;;8.80;7.90;;;;;;;;;;5057610;28;20265;-71
2023/03/19 06:27:53;;;;;;;9.77;7.53;;;;;;;;;;5055535;28;20557;-71
2023/03/19 06:30:19;;;;;;;10.53;7.90;;;;;;;;;;5056436;28;20210;-70
2023/03/19 06:32:45;;;;;;;9.37;8.30;;;;;;;;;;5055310;28;20202;-70
2023/03/19 06:35:12;;;;;;;14.23;8.83;;;;;;;;;;5055375;28;20281;-71
2023/03/19 06:37:38;;;;;;;10.80;9.13;;;;;;;;;;5056283;28;20174;-71
2023/03/19 06:40:04;;;;;;;11.17;8.37;;;;;;;;;;5054742;28;20213;-71
2023/03/19 06:42:30;;;;;;;9.40;8.50;;;;;;;;;;5055949;28;20301;-71
2023/03/19 06:44:56;;;;;;;11.43;8.77;;;;;;;;;;5055219;28;20269;-72
2023/03/19 06:47:22;;;;;;;10.00;8.77;;;;;;;;;;5056205;28;20170;-71
2023/03/19 06:49:48;;;;;;;10.50;8.53;;;;;;;;;;5055175;28;20692;-70
2023/03/19 06:52:14;;;;;;;10.83;8.90;;;;;;;;;;5056261;28;20631;-70
2023/03/19 06:54:40;;;;;;;11.83;8.80;;;;;;;;;;5056185;28;20214;-70
2023/03/19 06:57:06;;;;;;;9.13;8.00;;;;;;;;;;5058963;28;20185;-70
2023/03/19 06:59:32;;;;;;;11.80;9.20;;;;;;;;;;5056818;28;20206;-71
2023/03/19 07:01:58;;;;;;;13.33;9.17;;;;;;;;;;5057392;28;20202;-71
2023/03/19 07:04:24;;;;;;;9.67;8.23;;;;;;;;;;5056188;28;20645;-70
2023/03/19 07:06:50;;;;;;;11.57;9.00;;;;;;;;;;5056191;28;20178;-71
2023/03/19 07:09:16;;;;;;;11.57;8.40;;;;;;;;;;5058337;28;20534;-70
2023/03/19 07:11:42;;;;;;;9.77;8.60;;;;;;;;;;5057967;28;20185;-71
2023/03/19 07:14:08;;;;;;;13.73;8.17;;;;;;;;;;5059053;28;20167;-71
2023/03/19 07:16:34;;;;;;;11.90;8.37;;;;;;;;;;5058502;28;20553;-71
2023/03/19 07:19:00;;;;;;;8.40;7.60;;;;;;;;;;5064552;28;20179;-71
2023/03/19 07:21:26;;;;;;;10.07;8.03;;;;;;;;;;5075571;28;20170;-71
2023/03/19 07:23:52;;;;;;;10.73;7.67;;;;;;;;;;5077481;28;20209;-71
2023/03/19 07:26:18;;;;;;;10.83;8.17;;;;;;;;;;5064475;28;20182;-72
2023/03/19 07:28:44;;;;;;;10.63;7.40;;;;;;;;;;5058006;28;20187;-71
2023/03/19 07:31:10;;;;;;;8.57;7.00;;;;;;;;;;5057106;28;20187;-71
2023/03/19 07:33:36;;;;;;;7.67;6.60;;;;;;;;;;5058380;28;20202;-71
2023/03/19 07:36:02;;;;;;;7.50;6.80;;;;;;;;;;5056319;28;20614;-71
2023/03/19 07:38:28;;;;;;;7.53;6.83;;;;;;;;;;5057724;28;20179;-71
2023/03/19 07:40:54;;;;;;;8.30;7.50;;;;;;;;;;5069679;28;20264;-70
2023/03/19 07:43:20;;;;;;;9.53;8.53;;;;;;;;;;5057454;28;20198;-71
2023/03/19 07:45:46;;;;;;;16.80;12.70;;;;;;;;;;5057933;28;20182;-70
2023/03/19 07:48:12;;;;;;;13.03;11.63;;;;;;;;;;5058061;28;20188;-71
2023/03/19 07:50:38;;;;;;;16.27;14.00;;;;;;;;;;5055061;28;20181;-71
2023/03/19 07:53:04;;;;;;;16.27;13.63;;;;;;;;;;5055690;28;20210;-71
2023/03/19 07:55:30;;;;;;;30.67;24.53;;;;;;;;;;5056179;28;20189;-71
2023/03/19 07:57:56;;;;;;;20.43;15.73;;;;;;;;;;5055459;28;20178;-71
2023/03/19 08:00:22;;;;;;;13.50;10.50;;;;;;;;;;5056183;28;20293;-71
2023/03/19 08:02:48;;;;;;;9.47;8.37;;;;;;;;;;5055892;28;20194;-71
2023/03/19 08:05:15;;;;;;;7.90;6.47;;;;;;;;;;5056644;28;20182;-70
2023/03/19 08:07:41;;;;;;;8.23;7.43;;;;;;;;;;5057516;28;20273;-71
2023/03/19 08:10:07;;;;;;;7.87;7.07;;;;;;;;;;5057554;28;20179;-70
2023/03/19 08:12:38;;;;;;;7.67;6.97;;;;;;;;;;5054919;28;20210;-71
2023/03/19 08:15:04;;;;;;;7.47;6.77;;;;;;;;;;5057134;28;20167;-71
2023/03/19 08:17:33;;;;;;;10.20;7.37;;;;;;;;;;5055241;28;20185;-71
2023/03/19 08:19:59;;;;;;;6.90;6.27;;;;;;;;;;5058429;28;20203;-71
2023/03/19 08:22:25;;;;;;;7.43;6.73;;;;;;;;;;5072419;28;20228;-71
2023/03/19 08:24:51;;;;;;;7.17;6.53;;;;;;;;;;5074515;28;20268;-71
2023/03/19 08:27:17;;;;;;;7.57;6.37;;;;;;;;;;5073930;28;20228;-71
2023/03/19 08:29:42;;;;;;;6.80;6.20;;;;;;;;;;5074153;28;20201;-72
2023/03/19 08:32:09;;;;;;;8.80;7.57;;;;;;;;;;5075641;28;20198;-71
2023/03/19 08:34:35;;;;;;;8.03;7.23;;;;;;;;;;5075270;28;20190;-71
2023/03/19 08:37:01;;;;;;;11.07;8.17;;;;;;;;;;5076113;28;20209;-71
2023/03/19 08:39:27;;;;;;;8.43;7.57;;;;;;;;;;5075565;28;20206;-71
2023/03/19 08:41:53;;;;;;;10.07;8.47;;;;;;;;;;5074895;28;20273;-72
2023/03/19 08:44:19;;;;;;;9.77;8.67;;;;;;;;;;5073802;28;20178;-71
2023/03/19 08:46:45;;;;;;;34.07;24.60;;;;;;;;;;5070862;28;20166;-72
2023/03/19 08:49:11;;;;;;;21.00;14.97;;;;;;;;;;5072879;28;20181;-71
2023/03/19 08:51:37;;;;;;;16.50;14.40;;;;;;;;;;5073421;28;20175;-72
2023/03/19 08:54:03;;;;;;;9.67;8.80;;;;;;;;;;5072963;28;20182;-71
2023/03/19 08:56:29;;;;;;;8.57;7.67;;;;;;;;;;5074183;28;20205;-71
2023/03/19 08:58:56;;;;;;;9.60;7.90;;;;;;;;;;5073018;28;20174;-71
2023/03/19 09:01:23;;;;;;;8.97;8.07;;;;;;;;;;5073927;28;20176;-71
2023/03/19 09:03:49;;;;;;;12.43;8.40;;;;;;;;;;5074722;28;20210;-71
2023/03/19 09:06:15;;;;;;;9.53;7.50;;;;;;;;;;5073358;28;20166;-71
2023/03/19 09:08:41;;;;;;;10.40;7.37;;;;;;;;;;5076056;28;20158;-72
2023/03/19 09:11:09;;;;;;;9.10;7.97;;;;;;;;;;5073868;28;20196;-71
2023/03/19 09:13:35;;;;;;;7.33;6.63;;;;;;;;;;5072983;28;20368;-71
2023/03/19 09:16:01;;;;;;;7.63;6.13;;;;;;;;;;5074933;28;20201;-70
2023/03/19 09:18:27;;;;;;;7.50;6.80;;;;;;;;;;5074688;28;20182;-71
2023/03/19 09:20:53;;;;;;;9.47;7.40;;;;;;;;;;5075148;28;20253;-70
2023/03/19 09:23:20;;;;;;;8.03;7.20;;;;;;;;;;5074284;28;20178;-70
2023/03/19 09:25:46;;;;;;;8.87;7.93;;;;;;;;;;5074772;28;20241;-70
2023/03/19 09:28:12;;;;;;;9.93;8.23;;;;;;;;;;5072488;28;20175;-70
2023/03/19 09:30:38;;;;;;;8.53;7.73;;;;;;;;;;5069111;28;20204;-70
2023/03/19 09:33:05;;;;;;;8.97;8.10;;;;;;;;;;5074500;28;20234;-70
2023/03/19 09:35:31;;;;;;;8.07;7.27;;;;;;;;;;5073672;28;20178;-70
2023/03/19 09:38:01;;;;;;;7.53;6.80;;;;;;;;;;5074444;28;20183;-71
2023/03/19 09:40:31;;;;;;;7.87;7.17;;;;;;;;;;5074614;28;20198;-70
2023/03/19 09:42:57;;;;;;;8.00;7.30;;;;;;;;;;5072610;28;20209;-71
2023/03/19 09:45:23;;;;;;;7.40;6.80;;;;;;;;;;5070270;28;20182;-71
2023/03/19 09:47:51;;;;;;;7.20;6.50;;;;;;;;;;5068997;28;20178;-70
2023/03/19 09:50:22;;;;;;;7.30;6.40;;;;;;;;;;5075746;28;20182;-70
2023/03/19 09:53:15;;;;;;;7.07;6.47;;;;;;;;;;5076172;28;20202;-70
2023/03/19 09:55:41;;;;;;;7.53;6.83;;;;;;;;;;5077118;28;20162;-71
2023/03/19 09:58:13;;;;;;;7.63;6.60;;;;;;;;;;5077572;28;20166;-71
2023/03/19 10:00:40;;;;;;;7.33;6.63;;;;;;;;;;5074579;28;20185;-70
2023/03/19 10:03:15;;;;;;;6.97;6.37;;;;;;;;;;5073946;28;20279;-70
2023/03/19 10:05:51;;;;;;;6.47;5.97;;;;;;;;;;5074646;28;20170;-70
2023/03/19 10:08:25;;;;;;;5.83;5.33;;;;;;;;;;5072992;28;20193;-69
2023/03/19 10:10:56;;;;;;;5.70;5.20;;;;;;;;;;5074320;28;20163;-70
2023/03/19 10:13:25;;;;;;;5.17;4.60;;;;;;;;;;5073916;28;20277;-70
2023/03/19 10:15:52;;;;;;;5.13;4.63;;;;;;;;;;5074865;28;20273;-70
2023/03/19 10:18:20;;;;;;;5.40;4.90;;;;;;;;;;5073985;28;20205;-70
2023/03/19 10:20:55;;;;;;;5.27;4.77;;;;;;;;;;5074366;28;20209;-71
2023/03/19 10:23:37;;;;;;;6.00;5.50;;;;;;;;;;5074900;28;20190;-70
2023/03/19 10:26:04;;;;;;;7.67;5.77;;;;;;;;;;5076248;28;20157;-70
2023/03/19 10:28:30;;;;;;;7.23;6.37;;;;;;;;;;5075196;28;20213;-71
2023/03/19 10:30:59;;;;;;;7.47;5.63;;;;;;;;;;5068896;28;20175;-70
2023/03/19 10:33:32;;;;;;;6.83;5.90;;;;;;;;;;5064217;28;20198;-70
2023/03/19 10:36:05;;;;;;;6.43;5.80;;;;;;;;;;5072126;28;20175;-69
2023/03/19 10:38:32;;;;;;;5.93;5.43;;;;;;;;;;5077467;28;20175;-71
2023/03/19 10:41:17;;;;;;;6.90;5.97;;;;;;;;;;5077206;28;20206;-70
2023/03/19 10:43:45;;;;;;;7.40;6.17;;;;;;;;;;5076664;28;20220;-70
2023/03/19 10:46:14;;;;;;;6.30;5.70;;;;;;;;;;5076969;28;20175;-70
2023/03/19 10:48:45;;;;;;;6.03;5.43;;;;;;;;;;5076682;28;20645;-70
2023/03/19 10:51:14;;;;;;;6.67;5.97;;;;;;;;;;5078269;28;20229;-70
2023/03/19 10:53:40;;;;;;;6.23;5.63;;;;;;;;;;5077793;28;20221;-70
2023/03/19 10:56:16;;;;;;;6.90;6.30;;;;;;;;;;5078263;28;20201;-70
2023/03/19 10:58:55;;;;;;;7.27;6.50;;;;;;;;;;5077461;28;20166;-71
2023/03/19 11:01:20;;;;;;;8.23;6.53;;;;;;;;;;5079504;28;20190;-71
2023/03/19 11:03:51;;;;;;;7.20;6.50;;;;;;;;;;5075398;28;20281;-70
2023/03/19 11:06:26;;;;;;;8.23;6.93;;;;;;;;;;5075714;28;20171;-70
2023/03/19 11:08:55;;;;;;;7.00;6.20;;;;;;;;;;5074308;28;20264;-70
2023/03/19 11:11:25;;;;;;;7.10;6.40;;;;;;;;;;5074042;28;20182;-71
2023/03/19 11:13:51;;;;;;;7.97;6.97;;;;;;;;;;5075297;28;20248;-71
2023/03/19 11:16:17;;;;;;;7.73;6.07;;;;;;;;;;5075463;28;20162;-71
2023/03/19 11:18:47;;;;;;;7.07;6.37;;;;;;;;;;5074500;28;20607;-71
2023/03/19 11:21:24;;;;;;;6.63;6.03;;;;;;;;;;5072147;28;20197;-71
2023/03/19 11:23:59;;;;;;;7.10;6.00;;;;;;;;;;5079608;28;20210;-72
2023/03/19 11:26:27;;;;;;;5.97;5.37;;;;;;;;;;5080835;28;20154;-71
2023/03/19 11:28:56;;;;;;;6.50;5.87;;;;;;;;;;5079594;28;20201;-71
2023/03/19 11:31:25;;;;;;;6.80;6.07;;;;;;;;;;5079024;28;20189;-72
2023/03/19 11:34:01;;;;;;;6.90;6.20;;;;;;;;;;5080420;28;20175;-72
2023/03/19 11:36:28;;;;;;;7.47;5.73;;;;;;;;;;5079925;28;20198;-72
2023/03/19 11:39:18;;;;;;;7.00;5.60;;;;;;;;;;5077963;28;20234;-72
2023/03/19 11:42:10;;;;;;;11.90;4.27;;;;;;;;;;5065502;28;20224;-71
2023/03/19 11:44:43;;;;;;;5.17;3.60;;;;;;;;;;5037841;28;20199;-71
2023/03/19 11:47:12;;;;;;;8.50;5.97;;;;;;;;;;5076835;28;20224;-72
2023/03/19 11:49:59;;;;;;;3.20;2.30;;;;;;;;;;5079239;28;20214;-71
2023/03/19 11:52:25;;;;;;;4.23;2.20;;;;;;;;;;5061823;28;20221;-72
2023/03/19 11:55:01;;;;;;;4.07;1.97;;;;;;;;;;5079394;28;20177;-72
2023/03/19 11:57:27;;;;;;;3.30;2.10;;;;;;;;;;5079197;28;20196;-72
2023/03/19 12:00:02;;;;;;;2.63;2.07;;;;;;;;;;5079798;28;20234;-72
2023/03/19 12:02:38;;;;;;;2.20;1.93;;;;;;;;;;5078956;28;20213;-71
2023/03/19 12:05:04;;;;;;;4.33;2.57;;;;;;;;;;5079296;28;20174;-71
2023/03/19 12:07:49;;;;;;;4.17;2.50;;;;;;;;;;5079439;28;20207;-71
2023/03/19 12:10:15;;;;;;;3.17;2.30;;;;;;;;;;5079583;28;20182;-72
2023/03/19 12:12:57;;;;;;;2.53;2.33;;;;;;;;;;5078165;28;20277;-72
2023/03/19 12:15:27;;;;;;;2.90;2.60;;;;;;;;;;5077321;28;20187;-70
2023/03/19 12:18:12;;;;;;;4.00;2.80;;;;;;;;;;5078601;28;20218;-71
2023/03/19 12:21:07;;;;;;;3.37;2.57;;;;;;;;;;5078899;28;20210;-72
2023/03/19 12:23:41;;;;;;;3.97;2.90;;;;;;;;;;5057802;28;20222;-70
2023/03/19 12:26:09;;;;;;;9.17;6.33;;;;;;;;;;5078719;28;20151;-70
2023/03/19 12:28:35;;;;;;;7.23;4.57;;;;;;;;;;5072212;28;20270;-70
2023/03/19 12:31:10;;;;;;;5.00;3.60;;;;;;;;;;5053846;28;20178;-70
2023/03/19 12:33:59;;;;;;;6.13;4.70;;;;;;;;;;5057311;28;20202;-70
2023/03/19 12:36:28;;;;;;;5.27;3.90;;;;;;;;;;5050012;28;20189;-68
2023/03/19 12:41:24;;;;;;;4.33;3.70;;;;;;;;;;5052289;28;20230;-66
2023/03/19 12:43:55;;;;;;;6.57;4.03;;;;;;;;;;5053761;28;20554;-67
2023/03/19 12:46:36;;;;;;;4.73;3.20;;;;;;;;;;5054241;28;20605;-66
2023/03/19 12:49:06;;;;;;;4.03;3.10;;;;;;;;;;5053595;28;20181;-67
2023/03/19 12:51:35;;;;;;;3.23;2.53;;;;;;;;;;5036012;28;20182;-67
2023/03/19 12:54:04;;;;;;;3.70;3.37;;;;;;;;;;5036749;28;20174;-66
2023/03/19 12:56:49;;;;;;;3.93;3.23;;;;;;;;;;5054097;28;20163;-67
2023/03/19 12:59:24;;;;;;;5.10;3.27;;;;;;;;;;5035518;28;20234;-67
2023/03/19 13:01:53;;;;;;;6.37;3.00;;;;;;;;;;5055976;28;20158;-68
2023/03/19 13:04:20;;;;;;;6.17;3.80;;;;;;;;;;5054570;28;20181;-68
2023/03/19 13:06:56;;;;;;;4.17;2.93;;;;;;;;;;5054740;28;20182;-68
2023/03/19 13:09:28;;;;;;;5.77;3.33;;;;;;;;;;5054770;28;20201;-68
2023/03/19 13:11:58;;;;;;;3.73;2.93;;;;;;;;;;5038213;28;20675;-68
2023/03/19 13:14:48;;;;;;;5.80;3.63;;;;;;;;;;5036219;28;20731;-67
2023/03/19 13:17:27;;;;;;;3.43;2.73;;;;;;;;;;5035855;28;20285;-67
2023/03/19 13:19:55;;;;;;;4.47;3.40;;;;;;;;;;5053591;28;20206;-68
2023/03/19 13:22:23;;;;;;;10.77;8.07;;;;;;;;;;5036180;28;20181;-69
2023/03/19 13:24:49;;;;;;;14.10;12.60;;;;;;;;;;5054079;28;20225;-68
2023/03/19 13:27:21;;;;;;;4.43;3.60;;;;;;;;;;5053943;28;20181;-68
2023/03/19 13:30:06;;;;;;;4.17;3.20;;;;;;;;;;5053763;28;20280;-70
2023/03/19 13:32:47;;;;;;;3.73;3.33;;;;;;;;;;5053990;28;20579;-68
2023/03/19 13:35:23;;;;;;;5.10;2.87;;;;;;;;;;5054390;28;20182;-67
2023/03/19 13:37:54;;;;;;;4.63;2.90;;;;;;;;;;5053840;28;20174;-67
2023/03/19 13:40:41;;;;;;;4.30;3.43;;;;;;;;;;5053227;28;20246;-67
2023/03/19 13:43:21;;;;;;;3.83;2.70;;;;;;;;;;5053161;28;20585;-68
2023/03/19 13:45:51;;;;;;;3.93;2.30;;;;;;;;;;5053212;28;20186;-68
2023/03/19 13:48:26;;;;;;;3.83;2.30;;;;;;;;;;5053589;28;20620;-68
2023/03/19 13:51:00;;;;;;;3.87;2.87;;;;;;;;;;5035092;28;20224;-67
2023/03/19 13:53:29;;;;;;;2.70;2.40;;;;;;;;;;5035361;28;20174;-67
2023/03/19 13:55:58;;;;;;;3.33;2.63;;;;;;;;;;5053160;28;20641;-67
2023/03/19 14:01:26;;;;;;;4.00;2.60;;;;;;;;;;5052892;28;20644;-68
2023/03/19 14:04:13;;;;;;;5.70;3.53;;;;;;;;;;5053467;28;20262;-68
2023/03/19 14:06:44;;;;;;;3.63;3.23;;;;;;;;;;5039941;28;20186;-68
2023/03/19 14:09:28;;;;;;;7.27;4.30;;;;;;;;;;5053571;28;20224;-67
2023/03/19 14:11:55;;;;;;;6.90;4.30;;;;;;;;;;5057334;28;20182;-66
2023/03/19 14:14:22;;;;;;;4.57;4.10;;;;;;;;;;5039086;28;20205;-69
2023/03/19 14:16:51;;;;;;;4.33;3.80;;;;;;;;;;5056900;28;20174;-67
2023/03/19 14:19:17;;;;;;;5.57;4.10;;;;;;;;;;5057277;28;20195;-67
2023/03/19 14:21:49;;;;;;;7.83;4.23;;;;;;;;;;5057039;28;20202;-68
2023/03/19 14:24:33;;;;;;;4.63;4.17;;;;;;;;;;5039191;28;20202;-68
2023/03/19 14:27:17;;;;;;;10.70;4.40;;;;;;;;;;5057123;28;20162;-68
2023/03/19 14:29:44;;;;;;;5.40;4.00;;;;;;;;;;5056239;28;20203;-68
2023/03/19 14:32:16;;;;;;;4.97;4.00;;;;;;;;;;5038662;28;20282;-68
2023/03/19 14:34:43;;;;;;;6.13;4.10;;;;;;;;;;5056690;28;20216;-68
2023/03/19 14:37:23;;;;;;;7.37;4.10;;;;;;;;;;5038193;28;20269;-68
2023/03/19 14:39:54;;;;;;;5.10;3.60;;;;;;;;;;5055940;28;20206;-68
2023/03/19 14:42:24;;;;;;;6.97;4.90;;;;;;;;;;5056740;28;20177;-69
2023/03/19 14:45:08;;;;;;;6.03;4.30;;;;;;;;;;5056363;28;20539;-68
2023/03/19 14:47:46;;;;;;;6.93;4.83;;;;;;;;;;5055967;28;20182;-68
2023/03/19 14:50:15;;;;;;;4.37;3.97;;;;;;;;;;5037954;28;20260;-66
2023/03/19 14:53:00;;;;;;;5.33;3.80;;;;;;;;;;5055845;28;20205;-67